createdAt,value
2023-01-09T00:01:23.664Z,68.18
2023-01-09T00:03:51.685Z,68.00
2023-01-09T00:06:21.181Z,68.22
2023-01-09T00:08:49.124Z,67.95
2023-01-09T00:11:17.388Z,67.63
2023-01-09T00:13:45.513Z,67.79
2023-01-09T00:16:13.495Z,68.04
2023-01-09T00:18:41.516Z,68.24
2023-01-09T00:21:10.578Z,68.04
2023-01-09T00:23:39.956Z,68.45
2023-01-09T00:26:08.929Z,68.39
2023-01-09T00:28:37.421Z,67.95
2023-01-09T00:31:06.567Z,67.57
2023-01-09T00:33:35.517Z,68.13
2023-01-09T00:36:04.086Z,68.30
2023-01-09T00:38:32.072Z,67.87
2023-01-09T00:41:01.919Z,68.33
2023-01-09T00:43:32.492Z,68.42
2023-01-09T00:46:01.811Z,67.91
2023-01-09T00:48:29.943Z,68.13
2023-01-09T00:50:59.485Z,68.09
2023-01-09T00:53:29.236Z,68.10
2023-01-09T00:55:58.142Z,68.10
2023-01-09T00:58:27.815Z,68.19
2023-01-09T01:00:55.835Z,67.88
2023-01-09T01:03:24.005Z,68.32
2023-01-09T01:06:09.431Z,68.21
2023-01-09T01:08:37.384Z,68.53
2023-01-09T01:11:06.090Z,68.20
2023-01-09T01:13:35.498Z,68.77
2023-01-09T01:16:05.526Z,68.73
2023-01-09T01:18:33.674Z,68.57
2023-01-09T01:21:01.752Z,68.67
2023-01-09T01:23:29.742Z,68.54
2023-01-09T01:25:57.766Z,68.77
2023-01-09T01:28:25.767Z,68.71
2023-01-09T01:30:55.337Z,68.58
2023-01-09T01:33:23.325Z,68.25
2023-01-09T01:35:51.238Z,68.91
2023-01-09T01:38:19.257Z,68.92
2023-01-09T01:40:53.510Z,69.02
2023-01-09T01:43:21.469Z,69.10
2023-01-09T01:45:49.438Z,69.03
2023-01-09T01:48:21.797Z,69.17
2023-01-09T01:50:51.512Z,69.32
2023-01-09T01:53:21.432Z,69.05
2023-01-09T01:55:55.251Z,68.87
2023-01-09T01:58:23.367Z,68.45
2023-01-09T02:00:51.597Z,68.33
2023-01-09T02:03:24.149Z,68.29
2023-01-09T02:05:52.190Z,68.39
2023-01-09T02:08:20.256Z,68.15
2023-01-09T02:10:48.968Z,68.37
2023-01-09T02:13:17.271Z,68.60
2023-01-09T02:15:52.720Z,68.47
2023-01-09T02:18:39.009Z,68.49
2023-01-09T02:21:11.639Z,68.20
2023-01-09T02:23:54.387Z,68.21
2023-01-09T02:26:46.296Z,68.26
2023-01-09T02:29:32.996Z,68.38
2023-01-09T02:32:05.539Z,68.29
2023-01-09T02:34:37.877Z,67.95
2023-01-09T02:37:09.132Z,67.93
2023-01-09T02:39:43.559Z,68.05
2023-01-09T02:42:14.852Z,67.98
2023-01-09T02:44:43.232Z,67.74
2023-01-09T02:47:26.007Z,67.83
2023-01-09T02:49:56.483Z,67.58
2023-01-09T02:52:33.316Z,67.60
2023-01-09T02:55:06.545Z,67.35
2023-01-09T02:57:42.294Z,67.26
2023-01-09T03:00:12.694Z,67.20
2023-01-09T03:02:43.769Z,67.35
2023-01-09T03:05:19.231Z,67.46
2023-01-09T03:07:49.839Z,67.41
2023-01-09T03:10:20.138Z,67.05
2023-01-09T03:12:49.919Z,66.97
2023-01-09T03:15:19.919Z,67.08
2023-01-09T03:17:49.666Z,66.91
2023-01-09T03:20:21.848Z,66.81
2023-01-09T03:22:54.465Z,66.58
2023-01-09T03:25:22.497Z,66.78
2023-01-09T03:27:53.613Z,66.55
2023-01-09T03:30:21.735Z,66.58
2023-01-09T03:32:49.705Z,66.75
2023-01-09T03:35:17.692Z,66.58
2023-01-09T03:37:47.233Z,66.70
2023-01-09T03:40:15.276Z,66.48
2023-01-09T03:42:43.167Z,66.75
2023-01-09T03:45:11.687Z,66.83
2023-01-09T03:47:39.717Z,66.53
2023-01-09T03:50:08.403Z,66.60
2023-01-09T03:52:37.012Z,66.40
2023-01-09T03:55:06.901Z,66.61
2023-01-09T03:57:34.967Z,66.59
2023-01-09T04:00:02.948Z,66.68
2023-01-09T04:02:31.507Z,66.90
2023-01-09T04:04:59.498Z,66.48
2023-01-09T04:07:27.475Z,66.85
2023-01-09T04:09:55.499Z,66.33
2023-01-09T04:12:24.843Z,66.15
2023-01-09T04:14:52.764Z,66.10
2023-01-09T04:17:20.782Z,66.34
2023-01-09T04:19:48.867Z,66.40
2023-01-09T04:22:16.866Z,66.38
2023-01-09T04:24:44.934Z,66.17
2023-01-09T04:27:13.347Z,66.20
2023-01-09T04:29:42.772Z,66.28
2023-01-09T04:32:10.874Z,65.88
2023-01-09T04:34:38.972Z,66.04
2023-01-09T04:37:06.907Z,65.90
2023-01-09T04:39:34.906Z,65.69
2023-01-09T04:42:02.923Z,65.93
2023-01-09T04:44:30.991Z,65.84
2023-01-09T04:47:00.429Z,65.87
2023-01-09T04:49:28.677Z,65.77
2023-01-09T04:51:57.138Z,65.85
2023-01-09T04:54:25.205Z,65.81
2023-01-09T04:56:53.090Z,65.95
2023-01-09T04:59:21.159Z,66.01
2023-01-09T05:01:49.478Z,66.17
2023-01-09T05:04:19.339Z,66.23
2023-01-09T05:06:49.584Z,66.05
2023-01-09T05:09:17.579Z,65.81
2023-01-09T05:11:45.721Z,65.65
2023-01-09T05:14:14.062Z,65.88
2023-01-09T05:16:42.257Z,65.57
2023-01-09T05:19:10.530Z,65.68
2023-01-09T05:21:39.961Z,65.68
2023-01-09T05:24:08.246Z,65.74
2023-01-09T05:26:36.383Z,65.41
2023-01-09T05:29:04.653Z,65.52
2023-01-09T05:31:32.627Z,65.44
2023-01-09T05:34:01.001Z,65.41
2023-01-09T05:36:29.922Z,65.60
2023-01-09T05:38:59.562Z,65.43
2023-01-09T05:41:27.683Z,65.24
2023-01-09T05:43:55.745Z,65.23
2023-01-09T05:46:23.798Z,65.21
2023-01-09T05:48:51.838Z,65.21
2023-01-09T05:51:19.954Z,65.13
2023-01-09T05:53:48.083Z,65.26
2023-01-09T05:56:18.095Z,65.17
2023-01-09T05:58:46.161Z,65.82
2023-01-09T06:01:14.207Z,65.52
2023-01-09T06:03:42.276Z,65.72
2023-01-09T06:06:10.262Z,65.69
2023-01-09T06:08:38.217Z,66.04
2023-01-09T06:11:06.458Z,65.91
2023-01-09T06:13:35.954Z,65.98
2023-01-09T06:16:03.983Z,65.89
2023-01-09T06:18:32.566Z,65.87
2023-01-09T06:21:00.557Z,66.12
2023-01-09T06:23:28.531Z,65.80
2023-01-09T06:25:56.499Z,66.08
2023-01-09T06:28:24.639Z,66.09
2023-01-09T06:30:54.411Z,66.03
2023-01-09T06:33:22.559Z,65.90
2023-01-09T06:35:50.503Z,65.89
2023-01-09T06:38:18.728Z,65.90
2023-01-09T06:40:46.841Z,66.04
2023-01-09T06:43:15.053Z,65.86
2023-01-09T06:45:43.506Z,65.96
2023-01-09T06:48:13.447Z,65.84
2023-01-09T06:50:41.702Z,65.71
2023-01-09T06:53:10.809Z,65.75
2023-01-09T06:55:38.890Z,65.30
2023-01-09T06:58:06.898Z,65.41
2023-01-09T07:00:34.913Z,65.19
2023-01-09T07:03:02.991Z,64.99
2023-01-09T07:05:32.699Z,65.09
2023-01-09T07:08:00.827Z,64.56
2023-01-09T07:10:28.924Z,64.61
2023-01-09T07:12:57.070Z,64.45
2023-01-09T07:15:25.020Z,64.17
2023-01-09T07:17:53.451Z,64.20
2023-01-09T07:20:21.926Z,64.27
2023-01-09T07:22:51.347Z,64.30
2023-01-09T07:25:19.512Z,63.87
2023-01-09T07:27:47.712Z,64.06
2023-01-09T07:30:16.157Z,63.83
2023-01-09T07:32:44.187Z,63.87
2023-01-09T07:35:12.680Z,63.78
2023-01-09T07:37:40.844Z,64.08
2023-01-09T07:40:11.351Z,63.71
2023-01-09T07:42:39.384Z,63.50
2023-01-09T07:45:08.095Z,63.86
2023-01-09T07:47:36.396Z,63.68
2023-01-09T07:50:04.461Z,63.45
2023-01-09T07:52:32.469Z,63.36
2023-01-09T07:55:00.515Z,63.13
2023-01-09T07:57:30.834Z,63.05
2023-01-09T08:00:00.693Z,63.23
2023-01-09T08:02:28.722Z,63.42
2023-01-09T08:04:56.972Z,62.70
2023-01-09T08:07:25.013Z,62.94
2023-01-09T08:09:55.234Z,62.68
2023-01-09T08:12:23.257Z,62.61
2023-01-09T08:14:53.187Z,62.16
2023-01-09T08:17:21.145Z,61.98
2023-01-09T08:19:49.219Z,61.71
2023-01-09T08:22:17.296Z,61.81
2023-01-09T08:24:45.306Z,61.59
2023-01-09T08:27:13.375Z,61.34
2023-01-09T08:29:41.365Z,61.20
2023-01-09T08:32:11.113Z,61.04
2023-01-09T08:34:39.101Z,60.63
2023-01-09T08:37:07.126Z,60.82
2023-01-09T08:39:36.381Z,60.61
2023-01-09T08:42:22.221Z,60.88
2023-01-09T08:45:07.802Z,60.80
2023-01-09T08:47:37.559Z,60.64
2023-01-09T08:50:05.978Z,60.90
2023-01-09T08:52:33.988Z,60.68
2023-01-09T08:55:02.208Z,60.23
2023-01-09T08:57:31.265Z,59.97
2023-01-09T08:59:59.388Z,60.01
2023-01-09T09:02:27.634Z,59.96
2023-01-09T09:04:57.007Z,60.18
2023-01-09T09:07:27.598Z,59.70
2023-01-09T09:09:55.806Z,60.35
2023-01-09T09:12:24.304Z,60.01
2023-01-09T09:15:10.142Z,59.47
2023-01-09T09:17:38.464Z,59.78
2023-01-09T09:20:08.839Z,59.86
2023-01-09T09:22:37.303Z,60.17
2023-01-09T09:25:05.715Z,60.17
2023-01-09T09:27:33.767Z,60.21
2023-01-09T09:30:02.026Z,60.34
2023-01-09T09:32:30.774Z,60.38
2023-01-09T09:34:58.897Z,60.28
2023-01-09T09:37:28.331Z,60.16
2023-01-09T09:39:57.921Z,60.00
2023-01-09T09:42:50.268Z,60.41
2023-01-09T09:45:25.165Z,59.97
2023-01-09T09:47:58.302Z,59.83
2023-01-09T09:50:35.268Z,59.34
2023-01-09T09:53:07.956Z,59.35
2023-01-09T09:55:38.636Z,59.64
2023-01-09T09:58:08.817Z,59.43
2023-01-09T10:00:37.148Z,59.24
2023-01-09T10:03:07.386Z,59.36
2023-01-09T10:05:36.255Z,59.50
2023-01-09T10:08:15.821Z,59.16
2023-01-09T10:10:48.178Z,59.29
2023-01-09T10:13:44.577Z,59.44
2023-01-09T10:16:21.820Z,59.35
2023-01-09T10:18:56.394Z,59.44
2023-01-09T10:21:31.733Z,59.43
2023-01-09T10:24:08.348Z,59.63
2023-01-09T10:26:41.073Z,59.58
2023-01-09T10:29:25.323Z,59.27
2023-01-09T10:32:01.027Z,59.27
2023-01-09T10:34:35.165Z,58.92
2023-01-09T10:37:06.814Z,59.07
2023-01-09T10:39:39.913Z,59.02
2023-01-09T10:42:12.062Z,58.99
2023-01-09T10:44:43.659Z,59.16
2023-01-09T10:47:17.120Z,59.18
2023-01-09T10:49:46.562Z,58.97
2023-01-09T10:52:18.373Z,58.88
2023-01-09T10:54:50.922Z,59.11
2023-01-09T10:57:26.507Z,58.98
2023-01-09T10:59:54.643Z,59.16
2023-01-09T11:02:28.235Z,59.09
2023-01-09T11:04:56.651Z,59.26
2023-01-09T11:07:26.732Z,59.06
2023-01-09T11:10:00.156Z,58.98
2023-01-09T11:12:28.850Z,59.16
2023-01-09T11:14:56.969Z,59.39
2023-01-09T11:17:28.150Z,59.24
2023-01-09T11:20:03.318Z,59.01
2023-01-09T11:22:33.204Z,58.70
2023-01-09T11:25:03.615Z,58.93
2023-01-09T11:27:31.793Z,58.80
2023-01-09T11:30:14.534Z,59.15
2023-01-09T11:32:43.287Z,59.14
2023-01-09T11:35:17.428Z,59.27
2023-01-09T11:37:46.139Z,59.29
2023-01-09T11:40:21.309Z,59.44
2023-01-09T11:43:06.321Z,59.46
2023-01-09T11:45:36.168Z,59.73
2023-01-09T11:48:17.618Z,59.83
2023-01-09T11:50:55.415Z,59.78
2023-01-09T11:53:23.974Z,59.91
2023-01-09T11:55:57.180Z,59.99
2023-01-09T11:58:25.296Z,60.27
2023-01-09T12:00:57.503Z,60.57
2023-01-09T12:03:29.186Z,60.76
2023-01-09T12:06:01.623Z,60.75
2023-01-09T12:08:34.983Z,60.65
2023-01-09T12:11:17.144Z,61.01
2023-01-09T12:13:52.881Z,61.44
2023-01-09T12:16:25.766Z,61.19
2023-01-09T12:18:58.644Z,61.35
2023-01-09T12:21:33.970Z,61.47
2023-01-09T12:24:16.768Z,61.78
2023-01-09T12:26:52.517Z,62.24
2023-01-09T12:29:38.924Z,62.62
2023-01-09T12:32:21.834Z,62.72
2023-01-09T12:34:59.357Z,62.51
2023-01-09T12:37:42.802Z,63.44
2023-01-09T12:40:18.535Z,62.96
2023-01-09T12:42:53.242Z,63.27
2023-01-09T12:45:35.574Z,63.48
2023-01-09T12:48:05.721Z,63.01
2023-01-09T12:50:46.300Z,63.42
2023-01-09T12:53:18.815Z,63.82
2023-01-09T12:55:49.204Z,63.47
2023-01-09T12:58:24.193Z,63.88
2023-01-09T13:00:54.422Z,63.95
2023-01-09T13:03:26.245Z,64.16
2023-01-09T13:05:57.604Z,64.21
2023-01-09T13:08:28.625Z,63.92
2023-01-09T13:10:59.969Z,64.05
2023-01-09T13:13:36.028Z,63.87
2023-01-09T13:16:07.715Z,64.00
2023-01-09T13:18:41.206Z,64.19
2023-01-09T13:21:09.803Z,64.19
2023-01-09T13:23:44.069Z,64.80
2023-01-09T13:26:17.449Z,64.85
2023-01-09T13:28:48.551Z,65.02
2023-01-09T13:31:36.471Z,65.14
2023-01-09T13:34:11.236Z,65.38
2023-01-09T13:36:47.741Z,64.99
2023-01-09T13:39:21.552Z,65.05
2023-01-09T13:42:10.073Z,64.90
2023-01-09T13:44:39.892Z,65.33
2023-01-09T13:47:17.366Z,65.36
2023-01-09T13:50:15.894Z,65.11
2023-01-09T13:52:44.408Z,65.00
2023-01-09T13:55:27.276Z,65.33
2023-01-09T13:58:15.196Z,65.12
2023-01-09T14:00:51.660Z,65.62
2023-01-09T14:03:21.745Z,65.91
2023-01-09T14:06:08.516Z,65.62
2023-01-09T14:08:36.573Z,65.89
2023-01-09T14:11:05.999Z,65.92
2023-01-09T14:13:35.297Z,65.86
2023-01-09T14:16:06.408Z,65.94
2023-01-09T14:18:35.403Z,65.69
2023-01-09T14:21:04.868Z,66.10
2023-01-09T14:23:51.007Z,65.71
2023-01-09T14:26:21.795Z,66.02
2023-01-09T14:28:49.914Z,66.07
2023-01-09T14:31:38.714Z,65.84
2023-01-09T14:34:31.039Z,65.57
2023-01-09T14:37:01.053Z,65.83
2023-01-09T14:39:31.311Z,66.17
2023-01-09T14:42:05.815Z,65.94
2023-01-09T14:44:40.978Z,65.72
2023-01-09T14:47:16.248Z,66.08
2023-01-09T14:49:50.517Z,65.76
2023-01-09T14:52:22.957Z,65.92
2023-01-09T14:54:52.177Z,65.77
2023-01-09T14:57:27.387Z,65.60
2023-01-09T14:59:58.904Z,65.94
2023-01-09T15:02:28.726Z,65.90
2023-01-09T15:05:01.178Z,65.47
2023-01-09T15:07:34.497Z,66.01
2023-01-09T15:10:03.580Z,65.74
2023-01-09T15:12:32.765Z,65.53
2023-01-09T15:15:03.186Z,65.79
2023-01-09T15:17:32.635Z,65.83
2023-01-09T15:20:02.972Z,65.64
2023-01-09T15:22:31.843Z,65.56
2023-01-09T15:25:00.330Z,65.73
2023-01-09T15:27:28.447Z,66.10
2023-01-09T15:29:56.534Z,65.74
2023-01-09T15:32:26.697Z,65.67
2023-01-09T15:34:55.720Z,65.57
2023-01-09T15:37:34.529Z,65.71
2023-01-09T15:40:03.641Z,65.95
2023-01-09T15:42:50.960Z,65.73
2023-01-09T15:45:23.120Z,65.70
2023-01-09T15:47:51.135Z,65.63
2023-01-09T15:50:22.438Z,66.04
2023-01-09T15:52:52.474Z,65.81
2023-01-09T15:55:35.353Z,65.43
2023-01-09T15:58:03.856Z,65.49
2023-01-09T16:00:39.440Z,65.85
2023-01-09T16:03:16.277Z,66.49
2023-01-09T16:05:45.421Z,66.16
2023-01-09T16:08:22.219Z,65.97
2023-01-09T16:10:52.049Z,65.97
2023-01-09T16:13:22.312Z,65.83
2023-01-09T16:15:50.767Z,65.66
2023-01-09T16:18:23.062Z,65.99
2023-01-09T16:20:51.414Z,65.84
2023-01-09T16:23:23.716Z,65.64
2023-01-09T16:25:51.729Z,66.17
2023-01-09T16:28:22.065Z,66.03
2023-01-09T16:33:36.781Z,66.11
2023-01-09T16:36:06.450Z,66.07
2023-01-09T16:38:35.992Z,66.13
2023-01-09T16:41:22.857Z,65.57
2023-01-09T16:43:51.767Z,65.83
2023-01-09T16:46:21.208Z,66.17
2023-01-09T16:48:49.606Z,66.11
2023-01-09T16:51:18.527Z,66.08
2023-01-09T16:53:47.988Z,66.11
2023-01-09T16:56:18.245Z,65.69
2023-01-09T16:58:46.489Z,66.40
2023-01-09T17:01:15.521Z,66.41
2023-01-09T17:03:44.477Z,66.23
2023-01-09T17:06:16.395Z,66.28
2023-01-09T17:08:45.321Z,65.95
2023-01-09T17:11:20.256Z,66.02
2023-01-09T17:13:48.780Z,66.51
2023-01-09T17:16:20.247Z,66.48
2023-01-09T17:18:48.259Z,66.64
2023-01-09T17:21:17.450Z,66.85
2023-01-09T17:23:45.505Z,66.67
2023-01-09T17:26:40.068Z,66.92
2023-01-09T17:29:08.335Z,66.52
2023-01-09T17:31:38.602Z,67.06
2023-01-09T17:34:06.684Z,66.94
2023-01-09T17:36:35.411Z,66.95
2023-01-09T17:39:03.643Z,67.25
2023-01-09T17:41:33.908Z,67.08
2023-01-09T17:44:02.125Z,67.11
2023-01-09T17:46:31.596Z,66.47
2023-01-09T17:48:59.622Z,66.37
2023-01-09T17:51:28.361Z,66.64
2023-01-09T17:53:56.627Z,66.81
2023-01-09T17:56:25.696Z,67.39
2023-01-09T17:58:55.310Z,67.06
2023-01-09T18:01:23.487Z,67.25
2023-01-09T18:03:51.588Z,66.98
2023-01-09T18:06:20.330Z,67.24
2023-01-09T18:08:48.636Z,67.12
2023-01-09T18:11:18.343Z,66.92
2023-01-09T18:13:46.578Z,67.50
2023-01-09T18:16:17.155Z,66.82
2023-01-09T18:18:45.555Z,67.04
2023-01-09T18:21:16.159Z,67.52
2023-01-09T18:23:44.201Z,67.45
2023-01-09T18:26:18.613Z,67.20
2023-01-09T18:28:46.736Z,67.21
2023-01-09T18:31:17.539Z,67.16
2023-01-09T18:33:47.026Z,67.04
2023-01-09T18:36:15.120Z,66.95
2023-01-09T18:38:43.362Z,67.23
2023-01-09T18:41:16.079Z,66.80
2023-01-09T18:43:44.306Z,66.93
2023-01-09T18:46:12.487Z,67.12
2023-01-09T18:48:42.033Z,67.38
2023-01-09T18:51:11.816Z,66.77
2023-01-09T18:53:39.901Z,66.95
2023-01-09T18:56:07.998Z,66.56
2023-01-09T18:58:36.051Z,66.65
2023-01-09T19:01:04.156Z,66.76
2023-01-09T19:03:32.904Z,67.05
2023-01-09T19:06:03.018Z,67.03
2023-01-09T19:08:31.378Z,66.50
2023-01-09T19:10:59.688Z,66.36
2023-01-09T19:13:30.569Z,66.69
2023-01-09T19:15:59.306Z,67.20
2023-01-09T19:18:28.162Z,66.87
2023-01-09T19:20:56.719Z,66.56
2023-01-09T19:23:26.195Z,66.56
2023-01-09T19:25:54.569Z,67.09
2023-01-09T19:28:23.031Z,66.29
2023-01-09T19:30:55.521Z,66.77
2023-01-09T19:33:24.690Z,66.63
2023-01-09T19:35:53.116Z,66.91
2023-01-09T19:38:22.772Z,67.04
2023-01-09T19:40:52.288Z,66.72
2023-01-09T19:43:26.883Z,66.51
2023-01-09T19:45:55.063Z,66.74
2023-01-09T19:48:23.791Z,66.60
2023-01-09T19:50:52.609Z,67.24
2023-01-09T19:53:20.607Z,66.97
2023-01-09T19:55:48.672Z,67.20
2023-01-09T19:58:18.469Z,66.89
2023-01-09T20:00:46.486Z,66.84
2023-01-09T20:03:14.549Z,67.32
2023-01-09T20:05:42.606Z,67.25
2023-01-09T20:08:11.774Z,66.96
2023-01-09T20:10:40.733Z,67.54
2023-01-09T20:13:08.880Z,67.03
2023-01-09T20:15:39.030Z,67.04
2023-01-09T20:18:07.978Z,67.54
2023-01-09T20:20:36.352Z,67.27
2023-01-09T20:23:04.432Z,66.49
2023-01-09T20:25:32.525Z,67.09
2023-01-09T20:28:00.591Z,66.92
2023-01-09T20:30:28.635Z,66.68
2023-01-09T20:33:00.063Z,66.69
2023-01-09T20:35:28.305Z,66.66
2023-01-09T20:37:56.526Z,66.92
2023-01-09T20:40:24.613Z,66.39
2023-01-09T20:42:52.648Z,66.93
2023-01-09T20:45:20.861Z,66.30
2023-01-09T20:47:48.891Z,66.38
2023-01-09T20:50:18.879Z,67.04
2023-01-09T20:52:46.829Z,66.75
2023-01-09T20:55:15.135Z,66.41
2023-01-09T20:57:43.114Z,66.78
2023-01-09T21:00:11.764Z,66.68
2023-01-09T21:02:40.101Z,66.70
2023-01-09T21:05:08.685Z,66.59
2023-01-09T21:07:38.523Z,66.53
2023-01-09T21:10:07.130Z,66.45
2023-01-09T21:12:38.571Z,66.75
2023-01-09T21:15:08.749Z,67.14
2023-01-09T21:17:37.882Z,66.46
2023-01-09T21:20:07.675Z,66.58
2023-01-09T21:22:35.999Z,66.72
2023-01-09T21:25:05.880Z,66.62
2023-01-09T21:27:35.103Z,66.55
2023-01-09T21:30:03.412Z,66.54
2023-01-09T21:32:32.925Z,66.94
2023-01-09T21:35:04.521Z,66.43
2023-01-09T21:37:33.570Z,66.44
2023-01-09T21:40:02.039Z,66.12
2023-01-09T21:42:50.474Z,66.21
2023-01-09T21:45:50.727Z,66.27
2023-01-09T21:48:18.815Z,66.42
2023-01-09T21:50:46.793Z,66.40
2023-01-09T21:53:14.814Z,66.59
2023-01-09T21:55:43.083Z,66.35
2023-01-09T21:58:12.814Z,66.87
2023-01-09T22:00:41.310Z,65.92
2023-01-09T22:03:09.445Z,66.24
2023-01-09T22:05:37.642Z,66.42
2023-01-09T22:08:05.690Z,66.18
2023-01-09T22:10:33.806Z,66.01
2023-01-09T22:13:17.932Z,66.57
2023-01-09T22:15:48.243Z,66.36
2023-01-09T22:18:16.193Z,67.02
2023-01-09T22:20:44.432Z,66.71
2023-01-09T22:23:12.713Z,66.25
2023-01-09T22:25:41.721Z,66.43
2023-01-09T22:28:10.440Z,66.28
2023-01-09T22:30:40.271Z,66.56
2023-01-09T22:33:11.316Z,66.69
2023-01-09T22:35:39.485Z,66.40
2023-01-09T22:38:07.585Z,65.98
2023-01-09T22:40:35.565Z,66.32
2023-01-09T22:43:04.035Z,65.87
2023-01-09T22:45:32.075Z,66.01
2023-01-09T22:48:00.195Z,66.27
2023-01-09T22:50:29.573Z,66.41
2023-01-09T22:52:57.923Z,65.82
2023-01-09T22:55:25.909Z,65.78
2023-01-09T22:57:53.995Z,65.86
2023-01-09T23:00:22.297Z,65.58
2023-01-09T23:02:50.450Z,65.64
2023-01-09T23:05:19.864Z,65.48
2023-01-09T23:07:49.361Z,65.57
2023-01-09T23:10:17.645Z,64.96
2023-01-09T23:12:51.496Z,65.20
2023-01-09T23:15:20.799Z,64.87
2023-01-09T23:17:49.028Z,65.38
2023-01-09T23:20:17.329Z,65.39
2023-01-09T23:22:45.259Z,65.40
2023-01-09T23:25:15.825Z,65.25
2023-01-09T23:27:44.490Z,64.82
2023-01-09T23:30:13.141Z,65.18
2023-01-09T23:32:41.161Z,65.42
2023-01-09T23:35:09.481Z,65.98
2023-01-09T23:37:37.510Z,65.78
2023-01-09T23:40:05.977Z,65.31
2023-01-09T23:42:52.907Z,65.53
2023-01-09T23:45:20.824Z,65.47
2023-01-09T23:47:48.747Z,65.49
2023-01-09T23:50:17.718Z,65.36
2023-01-09T23:52:45.891Z,65.30
2023-01-09T23:55:14.858Z,65.23
2023-01-09T23:57:44.553Z,65.42
